Strona główna
METAR-TAF:

METAR-TAF

Lotnisko :

Wittering, Anglia

Szerokość geograficzna: 52-37N, Długość geograficzna: 000-28W, wysokość: 84 m

Aktualna obserwacja pogody

Raport powstał 46 minut temu, godzina 19:50 UTC
Wiatr 5 kt od północno-północny wschód
Temperatura 1°C
Wilgotność 93%
Ciśnienie 1017 hPa
Widzialność 10 km lub więcej

METAR: EGXT 271950Z AUTO 02005KT 9999 NCD 01/00 Q1017

czas: 20:36 (20:36 UTC)

Prognoza

Raport powstał 6 godziny i 3 minut temu, godzina 14:33 UTC
Prognoza ważna od 27 godzina 15 UTC do 27 godzina 18 UTC
Wiatr 3 kt z kierunków zmiennych
Widzialność 10 km lub więcej
Rozproszone chmury na wysokości 4500 ft
Stopniowe zmiany
od 27 godzina 15 UTC do 27 godzina 18 UTC
Widzialność: 4000 m
zamglenie

TAF: EGXT 271433Z 2715/2718 VRB03KT 9999 SCT045 BECMG 2715/2718 4000 BR

Obserwacja i prognoza pogody dla ponad 4000 lotnisk (raport METAR i TAF).

Dostępne stacje oznaczono żółtymi i czerwonymi punktami na mapie.

Najedź kursorem aby zobaczyć nazwę stacji.

Kliknij aby zobaczyć obserwacje i prognozy pogody.

Aby zmienić mapę: kliknij na zielony przycisk z czarnym krzyżykiem, aby powiększyć; na zielony przycisk z myślnikiem, aby pomniejszyć; na zielone strzałki, aby przejść do map sąsiednich.


METAR-TAF: